LOT7001 EPWA-DAAG
Flight info
| Callsign | LOT7001 |
|---|---|
| Flight time | 3h 4m |
| Altitude | 40000 |
| Route | EVINA M66 BABKO DCT MAREG DCT RADLY/N0416F390 DCT BARPI DCT TULIK DCT SUKOM DCT ELB DCT SUPUX DCT ETOIL DCT REQIN/N0419F400 DCT BOURI |
| Aircraft | B738/M-SDE2E3FGHIRWXY/LB1 |
Departure
| Time | 2026-05-01 10:23 |
|---|---|
| Airport | Warsaw Chopin Airport (EPWA) |
Arrival
| Time | 2026-05-01 13:28 |
|---|---|
| Airport | Houari Boumediene Airport (DAAG) |
| Time | Latitude | Longitude | Altitude | Speed | Heading |
|---|---|---|---|---|---|
| 2026-05-01 09:54 | 52.17383 | 20.96512 | 333 ft | 0 kts | 208° |
| 2026-05-01 10:14 | 52.17382 | 20.96511 | 333 ft | 1 kts | 208° |
| 2026-05-01 10:15 | 52.17324 | 20.96475 | 334 ft | 13 kts | 177° |
| 2026-05-01 10:15 | 52.17240 | 20.96534 | 333 ft | 13 kts | 154° |
| 2026-05-01 10:15 | 52.17142 | 20.96615 | 333 ft | 22 kts | 152° |
| 2026-05-01 10:15 | 52.16983 | 20.96754 | 330 ft | 26 kts | 151° |
| 2026-05-01 10:16 | 52.16823 | 20.96893 | 331 ft | 25 kts | 151° |
| 2026-05-01 10:16 | 52.16668 | 20.97029 | 334 ft | 24 kts | 152° |
| 2026-05-01 10:16 | 52.16585 | 20.97100 | 335 ft | 0 kts | 152° |
| 2026-05-01 10:21 | 52.16564 | 20.97119 | 336 ft | 11 kts | 152° |
| 2026-05-01 10:21 | 52.16466 | 20.97206 | 336 ft | 15 kts | 149° |
| 2026-05-01 10:22 | 52.16454 | 20.97141 | 336 ft | 0 kts | 295° |
| 2026-05-01 10:23 | 52.16483 | 20.97041 | 334 ft | 38 kts | 295° |
| 2026-05-01 10:23 | 52.17129 | 20.94719 | 569 ft | 160 kts | 297° |
| 2026-05-01 10:23 | 52.17587 | 20.93106 | 1469 ft | 159 kts | 297° |
| 2026-05-01 10:24 | 52.18424 | 20.89491 | 2699 ft | 194 kts | 274° |
| 2026-05-01 10:24 | 52.17635 | 20.84753 | 3694 ft | 239 kts | 259° |
| 2026-05-01 10:25 | 52.16833 | 20.79166 | 4978 ft | 269 kts | 261° |
| 2026-05-01 10:25 | 52.15934 | 20.73034 | 6533 ft | 290 kts | 255° |
| 2026-05-01 10:26 | 52.14809 | 20.70256 | 7415 ft | 303 kts | 223° |
| 2026-05-01 10:26 | 52.12940 | 20.68751 | 8334 ft | 308 kts | 189° |
| 2026-05-01 10:26 | 52.08788 | 20.69731 | 10108 ft | 314 kts | 163° |
| 2026-05-01 10:27 | 52.04139 | 20.70031 | 11335 ft | 357 kts | 186° |
| 2026-05-01 10:27 | 51.99245 | 20.67882 | 13124 ft | 373 kts | 197° |
| 2026-05-01 10:28 | 51.96754 | 20.66519 | 14073 ft | 379 kts | 198° |
| 2026-05-01 10:28 | 51.91713 | 20.63774 | 15926 ft | 391 kts | 197° |
| 2026-05-01 10:28 | 51.89132 | 20.62390 | 16880 ft | 396 kts | 196° |
| 2026-05-01 10:29 | 51.83807 | 20.59560 | 18631 ft | 407 kts | 196° |
| 2026-05-01 10:29 | 51.81127 | 20.58142 | 19561 ft | 410 kts | 196° |
| 2026-05-01 10:30 | 51.75663 | 20.55261 | 21126 ft | 421 kts | 196° |
| 2026-05-01 10:30 | 51.70031 | 20.52301 | 22581 ft | 433 kts | 196° |
| 2026-05-01 10:31 | 51.64246 | 20.49269 | 24059 ft | 442 kts | 196° |
| 2026-05-01 10:31 | 51.58398 | 20.46209 | 25484 ft | 449 kts | 196° |
| 2026-05-01 10:32 | 51.53479 | 20.43642 | 26602 ft | 454 kts | 195° |
| 2026-05-01 10:32 | 51.50422 | 20.42049 | 27196 ft | 459 kts | 196° |
| 2026-05-01 10:32 | 51.44299 | 20.38869 | 28333 ft | 468 kts | 195° |
| 2026-05-01 10:33 | 51.38091 | 20.35653 | 29398 ft | 477 kts | 195° |
| 2026-05-01 10:33 | 51.31743 | 20.32352 | 30536 ft | 482 kts | 195° |
| 2026-05-01 10:34 | 51.28560 | 20.30697 | 31004 ft | 486 kts | 195° |
| 2026-05-01 10:34 | 51.25394 | 20.29052 | 31391 ft | 491 kts | 195° |
| 2026-05-01 10:34 | 51.22668 | 20.27637 | 31777 ft | 493 kts | 195° |
| 2026-05-01 10:35 | 51.16124 | 20.24249 | 32668 ft | 498 kts | 195° |
| 2026-05-01 10:35 | 51.12837 | 20.22551 | 33276 ft | 497 kts | 195° |
| 2026-05-01 10:35 | 51.09592 | 20.20877 | 33896 ft | 494 kts | 195° |
| 2026-05-01 10:35 | 51.06334 | 20.19199 | 34510 ft | 491 kts | 195° |
| 2026-05-01 10:36 | 50.99839 | 20.15863 | 35479 ft | 490 kts | 195° |
| 2026-05-01 10:36 | 50.96627 | 20.14217 | 35985 ft | 488 kts | 195° |
| 2026-05-01 10:36 | 50.93410 | 20.12571 | 36486 ft | 486 kts | 195° |
| 2026-05-01 10:37 | 50.90203 | 20.10933 | 37059 ft | 485 kts | 195° |
| 2026-05-01 10:37 | 50.83850 | 20.07699 | 38348 ft | 479 kts | 195° |
| 2026-05-01 10:37 | 50.80694 | 20.06095 | 38838 ft | 477 kts | 195° |
| 2026-05-01 10:38 | 50.77549 | 20.04499 | 39127 ft | 479 kts | 195° |
| 2026-05-01 10:38 | 50.74411 | 20.02910 | 39512 ft | 478 kts | 195° |
| 2026-05-01 10:38 | 50.71256 | 20.01312 | 39898 ft | 477 kts | 195° |
| 2026-05-01 10:38 | 50.68097 | 19.99715 | 40184 ft | 476 kts | 196° |
| 2026-05-01 10:39 | 50.64966 | 19.98135 | 40329 ft | 478 kts | 196° |
| 2026-05-01 10:39 | 50.61795 | 19.96536 | 40309 ft | 479 kts | 195° |
| 2026-05-01 10:39 | 50.55471 | 19.93353 | 40310 ft | 474 kts | 195° |
| 2026-05-01 10:40 | 50.49200 | 19.90207 | 40314 ft | 475 kts | 196° |
| 2026-05-01 10:40 | 50.42910 | 19.87062 | 40304 ft | 477 kts | 195° |
| 2026-05-01 10:41 | 50.36589 | 19.83907 | 40315 ft | 475 kts | 195° |
| 2026-05-01 10:42 | 50.27190 | 19.79233 | 40341 ft | 475 kts | 195° |
| 2026-05-01 10:42 | 50.20875 | 19.76104 | 40336 ft | 476 kts | 196° |
| 2026-05-01 10:43 | 50.15666 | 19.73531 | 40338 ft | 477 kts | 196° |
| 2026-05-01 10:43 | 50.09607 | 19.70544 | 40341 ft | 476 kts | 195° |
| 2026-05-01 10:44 | 50.02642 | 19.67118 | 40344 ft | 476 kts | 195° |
| 2026-05-01 10:44 | 49.96461 | 19.64089 | 40330 ft | 476 kts | 195° |
| 2026-05-01 10:45 | 49.90085 | 19.60974 | 40336 ft | 476 kts | 195° |
| 2026-05-01 10:45 | 49.84117 | 19.58064 | 40330 ft | 476 kts | 195° |
| 2026-05-01 10:46 | 49.77671 | 19.54930 | 40324 ft | 476 kts | 195° |
| 2026-05-01 10:46 | 49.71519 | 19.51947 | 40323 ft | 476 kts | 195° |
| 2026-05-01 10:47 | 49.65105 | 19.48715 | 40322 ft | 478 kts | 200° |
| 2026-05-01 10:47 | 49.62186 | 19.46559 | 40316 ft | 479 kts | 211° |
| 2026-05-01 10:47 | 49.59551 | 19.43506 | 40312 ft | 478 kts | 225° |
| 2026-05-01 10:48 | 49.55061 | 19.35889 | 40310 ft | 479 kts | 232° |
| 2026-05-01 10:48 | 49.50936 | 19.28287 | 40305 ft | 477 kts | 232° |
| 2026-05-01 10:49 | 49.46630 | 19.20342 | 40302 ft | 477 kts | 232° |
| 2026-05-01 10:49 | 49.42510 | 19.12788 | 40295 ft | 478 kts | 231° |
| 2026-05-01 10:50 | 49.38201 | 19.04929 | 40314 ft | 478 kts | 231° |
| 2026-05-01 10:50 | 49.34021 | 18.97338 | 40322 ft | 478 kts | 231° |
| 2026-05-01 10:51 | 49.29765 | 18.89636 | 40333 ft | 477 kts | 231° |
| 2026-05-01 10:51 | 49.25685 | 18.82277 | 40335 ft | 477 kts | 232° |
| 2026-05-01 10:52 | 49.21668 | 18.75051 | 40336 ft | 477 kts | 231° |
| 2026-05-01 10:52 | 49.17779 | 18.68073 | 40339 ft | 478 kts | 231° |
| 2026-05-01 10:53 | 49.13319 | 18.60095 | 40342 ft | 478 kts | 231° |
| 2026-05-01 10:53 | 49.09067 | 18.52516 | 40337 ft | 477 kts | 231° |
| 2026-05-01 10:54 | 49.04779 | 18.44891 | 40338 ft | 477 kts | 231° |
| 2026-05-01 10:54 | 49.00502 | 18.37308 | 40342 ft | 477 kts | 231° |
| 2026-05-01 10:55 | 48.96182 | 18.29672 | 40353 ft | 478 kts | 231° |
| 2026-05-01 10:55 | 48.91862 | 18.22057 | 40349 ft | 477 kts | 231° |
| 2026-05-01 10:56 | 48.87577 | 18.14524 | 40327 ft | 476 kts | 231° |
| 2026-05-01 10:56 | 48.83251 | 18.06945 | 40340 ft | 475 kts | 231° |
| 2026-05-01 10:57 | 48.78947 | 17.99424 | 40343 ft | 475 kts | 230° |
| 2026-05-01 10:57 | 48.74609 | 17.91864 | 40339 ft | 477 kts | 231° |
| 2026-05-01 10:58 | 48.70258 | 17.84307 | 40365 ft | 475 kts | 231° |
| 2026-05-01 10:58 | 48.65903 | 17.76760 | 40345 ft | 476 kts | 230° |
| 2026-05-01 10:59 | 48.61721 | 17.69534 | 40347 ft | 475 kts | 230° |
| 2026-05-01 10:59 | 48.57540 | 17.62333 | 40345 ft | 475 kts | 231° |
| 2026-05-01 11:00 | 48.53200 | 17.54877 | 40351 ft | 475 kts | 231° |
| 2026-05-01 11:00 | 48.49066 | 17.47796 | 40350 ft | 474 kts | 231° |
| 2026-05-01 11:01 | 48.44634 | 17.40224 | 40351 ft | 474 kts | 231° |
| 2026-05-01 11:01 | 48.40309 | 17.32854 | 40356 ft | 473 kts | 230° |
| 2026-05-01 11:02 | 48.35955 | 17.25454 | 40354 ft | 474 kts | 230° |
| 2026-05-01 11:02 | 48.31626 | 17.18120 | 40360 ft | 474 kts | 230° |
| 2026-05-01 11:03 | 48.27244 | 17.10717 | 40366 ft | 475 kts | 230° |
| 2026-05-01 11:03 | 48.22850 | 17.03315 | 40367 ft | 475 kts | 230° |
| 2026-05-01 11:04 | 48.18382 | 16.96342 | 40375 ft | 474 kts | 223° |
| 2026-05-01 11:04 | 48.13374 | 16.90145 | 40376 ft | 475 kts | 219° |
| 2026-05-01 11:05 | 48.08227 | 16.84093 | 40361 ft | 475 kts | 219° |
| 2026-05-01 11:05 | 48.03075 | 16.78054 | 40360 ft | 475 kts | 219° |
| 2026-05-01 11:06 | 47.97878 | 16.71969 | 40351 ft | 476 kts | 219° |
| 2026-05-01 11:06 | 47.92720 | 16.65937 | 40360 ft | 476 kts | 219° |
| 2026-05-01 11:07 | 47.84892 | 16.56809 | 40338 ft | 476 kts | 219° |
| 2026-05-01 11:07 | 47.79705 | 16.50777 | 40350 ft | 476 kts | 219° |
| 2026-05-01 11:08 | 47.74490 | 16.44730 | 40334 ft | 475 kts | 219° |
| 2026-05-01 11:09 | 47.66708 | 16.35734 | 40337 ft | 474 kts | 219° |
| 2026-05-01 11:09 | 47.61503 | 16.29736 | 40349 ft | 475 kts | 218° |
| 2026-05-01 11:10 | 47.53704 | 16.20778 | 40325 ft | 475 kts | 218° |
| 2026-05-01 11:10 | 47.48486 | 16.14806 | 40330 ft | 475 kts | 218° |
| 2026-05-01 11:11 | 47.43272 | 16.08853 | 40335 ft | 475 kts | 218° |
| 2026-05-01 11:11 | 47.38048 | 16.02904 | 40341 ft | 476 kts | 218° |
| 2026-05-01 11:12 | 47.32804 | 15.96946 | 40342 ft | 476 kts | 218° |
| 2026-05-01 11:12 | 47.27600 | 15.91049 | 40342 ft | 476 kts | 218° |
| 2026-05-01 11:13 | 47.22324 | 15.85087 | 40336 ft | 476 kts | 218° |
| 2026-05-01 11:13 | 47.17110 | 15.79209 | 40346 ft | 475 kts | 218° |
| 2026-05-01 11:14 | 47.11876 | 15.73324 | 40341 ft | 476 kts | 218° |
| 2026-05-01 11:14 | 47.06635 | 15.67447 | 40344 ft | 475 kts | 218° |
| 2026-05-01 11:15 | 47.01400 | 15.61592 | 40346 ft | 475 kts | 218° |
| 2026-05-01 11:15 | 46.96167 | 15.55752 | 40355 ft | 475 kts | 218° |
| 2026-05-01 11:16 | 46.90908 | 15.49898 | 40341 ft | 475 kts | 219° |
| 2026-05-01 11:16 | 46.85712 | 15.44130 | 40349 ft | 473 kts | 218° |
| 2026-05-01 11:17 | 46.80461 | 15.38315 | 40354 ft | 474 kts | 218° |
| 2026-05-01 11:17 | 46.75278 | 15.32587 | 40334 ft | 475 kts | 218° |
| 2026-05-01 11:18 | 46.70044 | 15.26821 | 40330 ft | 474 kts | 218° |
| 2026-05-01 11:18 | 46.64928 | 15.20853 | 40320 ft | 474 kts | 224° |
| 2026-05-01 11:19 | 46.60380 | 15.13973 | 40316 ft | 472 kts | 230° |
| 2026-05-01 11:19 | 46.56039 | 15.06885 | 40308 ft | 472 kts | 231° |
| 2026-05-01 11:20 | 46.51723 | 14.99815 | 40312 ft | 472 kts | 230° |
| 2026-05-01 11:20 | 46.47400 | 14.92766 | 40315 ft | 471 kts | 230° |
| 2026-05-01 11:21 | 46.43034 | 14.85679 | 40297 ft | 471 kts | 231° |
| 2026-05-01 11:21 | 46.38665 | 14.78612 | 40313 ft | 472 kts | 231° |
| 2026-05-01 11:22 | 46.34303 | 14.71578 | 40316 ft | 470 kts | 230° |
| 2026-05-01 11:22 | 46.29972 | 14.64612 | 40342 ft | 470 kts | 230° |
| 2026-05-01 11:23 | 46.25592 | 14.57585 | 40345 ft | 470 kts | 230° |
| 2026-05-01 11:23 | 46.21250 | 14.50639 | 40335 ft | 470 kts | 230° |
| 2026-05-01 11:24 | 46.16866 | 14.43644 | 40337 ft | 469 kts | 231° |
| 2026-05-01 11:25 | 46.10326 | 14.33241 | 40344 ft | 469 kts | 230° |
| 2026-05-01 11:25 | 46.03764 | 14.22842 | 40340 ft | 469 kts | 230° |
| 2026-05-01 11:26 | 45.97183 | 14.12455 | 40350 ft | 468 kts | 230° |
| 2026-05-01 11:27 | 45.92795 | 14.05552 | 40345 ft | 468 kts | 230° |
| 2026-05-01 11:27 | 45.88424 | 13.98691 | 40330 ft | 467 kts | 230° |
| 2026-05-01 11:28 | 45.84011 | 13.91783 | 40312 ft | 468 kts | 230° |
| 2026-05-01 11:28 | 45.79634 | 13.84948 | 40314 ft | 466 kts | 230° |
| 2026-05-01 11:29 | 45.73052 | 13.74702 | 40331 ft | 466 kts | 230° |
| 2026-05-01 11:30 | 45.66473 | 13.64499 | 40330 ft | 467 kts | 230° |
| 2026-05-01 11:30 | 45.62084 | 13.57715 | 40330 ft | 465 kts | 230° |
| 2026-05-01 11:31 | 45.58030 | 13.50606 | 40327 ft | 460 kts | 239° |
| 2026-05-01 11:31 | 45.54682 | 13.42831 | 40336 ft | 460 kts | 244° |
| 2026-05-01 11:32 | 45.51481 | 13.34959 | 40328 ft | 459 kts | 243° |
| 2026-05-01 11:32 | 45.48267 | 13.27071 | 40334 ft | 460 kts | 243° |
| 2026-05-01 11:33 | 45.45064 | 13.19247 | 40328 ft | 458 kts | 243° |
| 2026-05-01 11:33 | 45.41866 | 13.11464 | 40320 ft | 457 kts | 243° |
| 2026-05-01 11:34 | 45.38652 | 13.03673 | 40319 ft | 457 kts | 243° |
| 2026-05-01 11:34 | 45.35422 | 12.95864 | 40337 ft | 457 kts | 243° |
| 2026-05-01 11:35 | 45.32200 | 12.88097 | 40336 ft | 455 kts | 243° |
| 2026-05-01 11:35 | 45.28910 | 12.80434 | 40327 ft | 459 kts | 239° |
| 2026-05-01 11:36 | 45.24886 | 12.73394 | 40351 ft | 460 kts | 231° |
| 2026-05-01 11:36 | 45.20586 | 12.66704 | 40348 ft | 459 kts | 231° |
| 2026-05-01 11:37 | 45.16281 | 12.60052 | 40341 ft | 458 kts | 231° |
| 2026-05-01 11:37 | 45.11961 | 12.53379 | 40359 ft | 458 kts | 231° |
| 2026-05-01 11:38 | 45.07695 | 12.46794 | 40360 ft | 455 kts | 231° |
| 2026-05-01 11:38 | 45.03402 | 12.40182 | 40347 ft | 455 kts | 231° |
| 2026-05-01 11:39 | 44.99144 | 12.33634 | 40350 ft | 454 kts | 230° |
| 2026-05-01 11:39 | 44.94871 | 12.27077 | 40353 ft | 454 kts | 230° |
| 2026-05-01 11:40 | 44.90574 | 12.20497 | 40352 ft | 454 kts | 230° |
| 2026-05-01 11:40 | 44.86321 | 12.14001 | 40357 ft | 454 kts | 230° |
| 2026-05-01 11:41 | 44.82028 | 12.07458 | 40351 ft | 452 kts | 231° |
| 2026-05-01 11:41 | 44.77787 | 12.01012 | 40343 ft | 450 kts | 231° |
| 2026-05-01 11:42 | 44.73510 | 11.94524 | 40348 ft | 451 kts | 231° |
| 2026-05-01 11:42 | 44.69244 | 11.88067 | 40331 ft | 451 kts | 231° |
| 2026-05-01 11:43 | 44.64995 | 11.81652 | 40339 ft | 450 kts | 231° |
| 2026-05-01 11:43 | 44.60753 | 11.75263 | 40350 ft | 449 kts | 231° |
| 2026-05-01 11:44 | 44.53928 | 11.66246 | 40337 ft | 453 kts | 218° |
| 2026-05-01 11:44 | 44.48411 | 11.61885 | 40336 ft | 458 kts | 210° |
| 2026-05-01 11:45 | 44.42719 | 11.57840 | 40332 ft | 459 kts | 210° |
| 2026-05-01 11:45 | 44.37025 | 11.53790 | 40329 ft | 458 kts | 211° |
| 2026-05-01 11:46 | 44.31369 | 11.49754 | 40316 ft | 459 kts | 211° |
| 2026-05-01 11:46 | 44.25690 | 11.45698 | 40335 ft | 457 kts | 211° |
| 2026-05-01 11:47 | 44.20026 | 11.41654 | 40311 ft | 458 kts | 211° |
| 2026-05-01 11:47 | 44.14381 | 11.37631 | 40311 ft | 458 kts | 211° |
| 2026-05-01 11:48 | 44.08735 | 11.33612 | 40529 ft | 460 kts | 211° |
| 2026-05-01 11:48 | 44.05860 | 11.31568 | 40770 ft | 463 kts | 211° |
| 2026-05-01 11:48 | 44.03010 | 11.29545 | 40970 ft | 464 kts | 211° |
| 2026-05-01 11:49 | 44.00135 | 11.27506 | 41101 ft | 467 kts | 211° |
| 2026-05-01 11:49 | 43.97286 | 11.25489 | 41292 ft | 468 kts | 211° |
| 2026-05-01 11:49 | 43.91492 | 11.21396 | 41313 ft | 464 kts | 211° |
| 2026-05-01 11:50 | 43.85784 | 11.17374 | 41318 ft | 458 kts | 211° |
| 2026-05-01 11:50 | 43.80167 | 11.13418 | 41314 ft | 460 kts | 211° |
| 2026-05-01 11:51 | 43.74424 | 11.09382 | 41304 ft | 462 kts | 211° |
| 2026-05-01 11:51 | 43.68722 | 11.05384 | 41306 ft | 462 kts | 211° |
| 2026-05-01 11:52 | 43.62948 | 11.01344 | 41303 ft | 464 kts | 211° |
| 2026-05-01 11:52 | 43.57217 | 10.97347 | 41302 ft | 462 kts | 211° |
| 2026-05-01 11:53 | 43.51488 | 10.93355 | 41304 ft | 463 kts | 211° |
| 2026-05-01 11:53 | 43.45747 | 10.89366 | 41288 ft | 462 kts | 211° |
| 2026-05-01 11:54 | 43.39973 | 10.85356 | 41287 ft | 466 kts | 211° |
| 2026-05-01 11:54 | 43.34168 | 10.81344 | 41278 ft | 464 kts | 211° |
| 2026-05-01 11:55 | 43.28430 | 10.77385 | 41277 ft | 463 kts | 211° |
| 2026-05-01 11:55 | 43.22675 | 10.73419 | 41273 ft | 464 kts | 211° |
| 2026-05-01 11:56 | 43.16946 | 10.69479 | 41268 ft | 465 kts | 211° |
| 2026-05-01 11:56 | 43.11142 | 10.65496 | 41258 ft | 465 kts | 211° |
| 2026-05-01 11:57 | 43.06337 | 10.62208 | 41261 ft | 463 kts | 212° |
| 2026-05-01 11:57 | 42.99605 | 10.57606 | 41261 ft | 464 kts | 211° |
| 2026-05-01 11:58 | 42.93875 | 10.53701 | 41250 ft | 462 kts | 211° |
| 2026-05-01 11:59 | 42.85290 | 10.47864 | 41252 ft | 461 kts | 211° |
| 2026-05-01 11:59 | 42.79560 | 10.43979 | 41256 ft | 458 kts | 211° |
| 2026-05-01 12:00 | 42.71301 | 10.37574 | 41248 ft | 450 kts | 222° |
| 2026-05-01 12:01 | 42.63918 | 10.29717 | 41263 ft | 448 kts | 224° |
| 2026-05-01 12:01 | 42.59084 | 10.24449 | 41263 ft | 447 kts | 224° |
| 2026-05-01 12:02 | 42.54260 | 10.19216 | 41268 ft | 444 kts | 224° |
| 2026-05-01 12:02 | 42.49406 | 10.13966 | 41265 ft | 445 kts | 224° |
| 2026-05-01 12:03 | 42.44573 | 10.08754 | 41279 ft | 444 kts | 224° |
| 2026-05-01 12:03 | 42.39759 | 10.03580 | 41282 ft | 442 kts | 224° |
| 2026-05-01 12:04 | 42.34968 | 9.98438 | 41278 ft | 442 kts | 224° |
| 2026-05-01 12:04 | 42.30146 | 9.93277 | 41272 ft | 439 kts | 224° |
| 2026-05-01 12:05 | 42.25397 | 9.88203 | 41279 ft | 440 kts | 224° |
| 2026-05-01 12:05 | 42.18191 | 9.80522 | 41279 ft | 439 kts | 224° |
| 2026-05-01 12:06 | 42.13399 | 9.75428 | 41263 ft | 438 kts | 224° |
| 2026-05-01 12:06 | 42.08614 | 9.70351 | 41261 ft | 438 kts | 224° |
| 2026-05-01 12:07 | 42.03819 | 9.65275 | 41253 ft | 436 kts | 224° |
| 2026-05-01 12:07 | 41.99085 | 9.60273 | 41233 ft | 435 kts | 224° |
| 2026-05-01 12:08 | 41.94318 | 9.55247 | 41253 ft | 433 kts | 224° |
| 2026-05-01 12:08 | 41.89571 | 9.50248 | 41251 ft | 434 kts | 224° |
| 2026-05-01 12:09 | 41.84832 | 9.45267 | 41256 ft | 434 kts | 224° |
| 2026-05-01 12:09 | 41.80076 | 9.40281 | 41251 ft | 432 kts | 224° |
| 2026-05-01 12:10 | 41.72968 | 9.32846 | 41251 ft | 433 kts | 224° |
| 2026-05-01 12:11 | 41.65895 | 9.25471 | 41250 ft | 430 kts | 223° |
| 2026-05-01 12:11 | 41.61158 | 9.20541 | 41257 ft | 430 kts | 224° |
| 2026-05-01 12:12 | 41.56416 | 9.15616 | 41239 ft | 432 kts | 224° |
| 2026-05-01 12:12 | 41.51694 | 9.10722 | 41245 ft | 430 kts | 224° |
| 2026-05-01 12:13 | 41.46962 | 9.05829 | 41238 ft | 427 kts | 224° |
| 2026-05-01 12:13 | 41.42274 | 9.00987 | 41233 ft | 427 kts | 224° |
| 2026-05-01 12:14 | 41.37550 | 8.96117 | 41236 ft | 428 kts | 223° |
| 2026-05-01 12:14 | 41.32875 | 8.91309 | 41228 ft | 426 kts | 223° |
| 2026-05-01 12:15 | 41.28155 | 8.86463 | 41230 ft | 426 kts | 223° |
| 2026-05-01 12:15 | 41.23457 | 8.81647 | 41229 ft | 427 kts | 223° |
| 2026-05-01 12:16 | 41.18765 | 8.76848 | 41228 ft | 425 kts | 223° |
| 2026-05-01 12:16 | 41.14088 | 8.72074 | 41232 ft | 424 kts | 223° |
| 2026-05-01 12:17 | 41.09410 | 8.67306 | 41231 ft | 425 kts | 223° |
| 2026-05-01 12:17 | 41.04696 | 8.62509 | 41219 ft | 425 kts | 223° |
| 2026-05-01 12:18 | 41.00005 | 8.57748 | 41216 ft | 423 kts | 223° |
| 2026-05-01 12:18 | 40.95342 | 8.53022 | 41216 ft | 423 kts | 223° |
| 2026-05-01 12:19 | 40.90691 | 8.48316 | 41213 ft | 423 kts | 223° |
| 2026-05-01 12:19 | 40.86016 | 8.43595 | 41213 ft | 423 kts | 223° |
| 2026-05-01 12:20 | 40.81334 | 8.38875 | 41205 ft | 423 kts | 223° |
| 2026-05-01 12:20 | 40.76685 | 8.34198 | 41210 ft | 421 kts | 222° |
| 2026-05-01 12:21 | 40.72070 | 8.29565 | 41208 ft | 420 kts | 222° |
| 2026-05-01 12:21 | 40.67411 | 8.24893 | 41208 ft | 420 kts | 222° |
| 2026-05-01 12:22 | 40.62775 | 8.20254 | 41207 ft | 420 kts | 222° |
| 2026-05-01 12:22 | 40.58149 | 8.15631 | 41200 ft | 421 kts | 221° |
| 2026-05-01 12:23 | 40.53473 | 8.10969 | 41196 ft | 420 kts | 221° |
| 2026-05-01 12:23 | 40.48817 | 8.06336 | 41202 ft | 419 kts | 221° |
| 2026-05-01 12:24 | 40.44168 | 8.01716 | 41201 ft | 419 kts | 221° |
| 2026-05-01 12:24 | 40.39690 | 7.96837 | 41196 ft | 416 kts | 227° |
| 2026-05-01 12:25 | 40.33400 | 7.89043 | 41194 ft | 413 kts | 228° |
| 2026-05-01 12:26 | 40.29230 | 7.83907 | 41190 ft | 413 kts | 227° |
| 2026-05-01 12:26 | 40.22917 | 7.76196 | 41183 ft | 412 kts | 227° |
| 2026-05-01 12:27 | 40.16609 | 7.68531 | 41187 ft | 412 kts | 227° |
| 2026-05-01 12:28 | 40.10304 | 7.60897 | 41182 ft | 411 kts | 227° |
| 2026-05-01 12:29 | 40.03983 | 7.53266 | 41174 ft | 411 kts | 227° |
| 2026-05-01 12:29 | 39.97694 | 7.45695 | 41174 ft | 411 kts | 227° |
| 2026-05-01 12:30 | 39.91367 | 7.38098 | 41170 ft | 411 kts | 227° |
| 2026-05-01 12:31 | 39.87142 | 7.33036 | 41173 ft | 411 kts | 226° |
| 2026-05-01 12:31 | 39.82953 | 7.28026 | 41176 ft | 410 kts | 226° |
| 2026-05-01 12:32 | 39.78736 | 7.22993 | 41172 ft | 409 kts | 226° |
| 2026-05-01 12:32 | 39.72426 | 7.15461 | 41170 ft | 408 kts | 226° |
| 2026-05-01 12:33 | 39.68362 | 7.10345 | 41175 ft | 407 kts | 227° |
| 2026-05-01 12:33 | 39.64312 | 7.05188 | 41173 ft | 408 kts | 227° |
| 2026-05-01 12:34 | 39.60255 | 7.00049 | 41175 ft | 408 kts | 227° |
| 2026-05-01 12:34 | 39.56178 | 6.94906 | 41182 ft | 408 kts | 227° |
| 2026-05-01 12:35 | 39.52116 | 6.89794 | 41189 ft | 408 kts | 227° |
| 2026-05-01 12:35 | 39.48027 | 6.84659 | 41193 ft | 406 kts | 227° |
| 2026-05-01 12:36 | 39.43989 | 6.79596 | 41191 ft | 404 kts | 227° |
| 2026-05-01 12:36 | 39.39932 | 6.74521 | 41193 ft | 405 kts | 227° |
| 2026-05-01 12:37 | 39.35863 | 6.69438 | 41190 ft | 405 kts | 227° |
| 2026-05-01 12:37 | 39.31816 | 6.64395 | 41188 ft | 403 kts | 227° |
| 2026-05-01 12:38 | 39.27790 | 6.59383 | 41188 ft | 404 kts | 227° |
| 2026-05-01 12:38 | 39.23735 | 6.54345 | 41191 ft | 404 kts | 227° |
| 2026-05-01 12:39 | 39.19678 | 6.49311 | 41194 ft | 405 kts | 227° |
| 2026-05-01 12:39 | 39.15622 | 6.44289 | 41195 ft | 403 kts | 227° |
| 2026-05-01 12:40 | 39.11595 | 6.39311 | 41190 ft | 403 kts | 227° |
| 2026-05-01 12:40 | 39.07614 | 6.34397 | 41196 ft | 404 kts | 226° |
| 2026-05-01 12:41 | 39.03501 | 6.29329 | 41194 ft | 404 kts | 226° |
| 2026-05-01 12:41 | 38.99469 | 6.24368 | 41184 ft | 403 kts | 226° |
| 2026-05-01 12:42 | 38.95433 | 6.19294 | 41169 ft | 402 kts | 227° |
| 2026-05-01 12:42 | 38.91465 | 6.14283 | 41173 ft | 402 kts | 226° |
| 2026-05-01 12:43 | 38.87477 | 6.09262 | 41170 ft | 404 kts | 226° |
| 2026-05-01 12:43 | 38.83451 | 6.04206 | 41164 ft | 404 kts | 226° |
| 2026-05-01 12:44 | 38.79430 | 5.99168 | 41160 ft | 403 kts | 226° |
| 2026-05-01 12:45 | 38.71361 | 5.89083 | 41159 ft | 403 kts | 226° |
| 2026-05-01 12:45 | 38.67359 | 5.84094 | 41159 ft | 403 kts | 226° |
| 2026-05-01 12:46 | 38.63340 | 5.79092 | 41162 ft | 401 kts | 226° |
| 2026-05-01 12:46 | 38.59321 | 5.74099 | 41154 ft | 402 kts | 226° |
| 2026-05-01 12:47 | 38.55308 | 5.69120 | 41161 ft | 403 kts | 226° |
| 2026-05-01 12:47 | 38.51246 | 5.64089 | 41156 ft | 403 kts | 226° |
| 2026-05-01 12:48 | 38.47228 | 5.59122 | 41156 ft | 404 kts | 226° |
| 2026-05-01 12:48 | 38.43184 | 5.54131 | 41150 ft | 403 kts | 226° |
| 2026-05-01 12:49 | 38.39125 | 5.49129 | 41151 ft | 404 kts | 226° |
| 2026-05-01 12:49 | 38.35121 | 5.44204 | 41144 ft | 404 kts | 226° |
| 2026-05-01 12:50 | 38.31058 | 5.39214 | 41148 ft | 405 kts | 226° |
| 2026-05-01 12:50 | 38.27005 | 5.34244 | 41147 ft | 404 kts | 225° |
| 2026-05-01 12:51 | 38.22953 | 5.29285 | 41145 ft | 403 kts | 225° |
| 2026-05-01 12:52 | 38.16871 | 5.21852 | 41143 ft | 404 kts | 225° |
| 2026-05-01 12:52 | 38.10754 | 5.14397 | 41141 ft | 405 kts | 225° |
| 2026-05-01 12:53 | 38.04700 | 5.07038 | 41131 ft | 405 kts | 225° |
| 2026-05-01 12:54 | 38.00619 | 5.02077 | 41138 ft | 406 kts | 226° |
| 2026-05-01 12:54 | 37.94750 | 4.94356 | 41133 ft | 404 kts | 227° |
| 2026-05-01 12:55 | 37.90886 | 4.89222 | 41028 ft | 405 kts | 229° |
| 2026-05-01 12:55 | 37.89052 | 4.86735 | 40815 ft | 406 kts | 229° |
| 2026-05-01 12:55 | 37.87114 | 4.84106 | 40595 ft | 403 kts | 229° |
| 2026-05-01 12:56 | 37.85193 | 4.81498 | 40386 ft | 401 kts | 228° |
| 2026-05-01 12:56 | 37.83302 | 4.78922 | 40161 ft | 400 kts | 228° |
| 2026-05-01 12:56 | 37.81415 | 4.76344 | 39850 ft | 399 kts | 229° |
| 2026-05-01 12:56 | 37.79523 | 4.73762 | 39486 ft | 399 kts | 229° |
| 2026-05-01 12:57 | 37.77632 | 4.71185 | 38424 ft | 405 kts | 229° |
| 2026-05-01 12:57 | 37.73834 | 4.66016 | 37084 ft | 396 kts | 229° |
| 2026-05-01 12:57 | 37.71970 | 4.63474 | 36559 ft | 390 kts | 229° |
| 2026-05-01 12:58 | 37.70121 | 4.60947 | 36027 ft | 390 kts | 229° |
| 2026-05-01 12:58 | 37.68285 | 4.58431 | 35491 ft | 393 kts | 229° |
| 2026-05-01 12:58 | 37.66449 | 4.55912 | 35046 ft | 390 kts | 229° |
| 2026-05-01 12:59 | 37.62795 | 4.50899 | 34006 ft | 381 kts | 229° |
| 2026-05-01 12:59 | 37.61053 | 4.48504 | 33494 ft | 376 kts | 229° |
| 2026-05-01 12:59 | 37.57557 | 4.43718 | 32529 ft | 365 kts | 229° |
| 2026-05-01 13:00 | 37.54105 | 4.39008 | 31575 ft | 367 kts | 229° |
| 2026-05-01 13:00 | 37.52357 | 4.36623 | 31077 ft | 367 kts | 229° |
| 2026-05-01 13:01 | 37.48928 | 4.31982 | 30123 ft | 357 kts | 228° |
| 2026-05-01 13:01 | 37.47265 | 4.29742 | 29664 ft | 352 kts | 228° |
| 2026-05-01 13:01 | 37.43961 | 4.25303 | 28749 ft | 350 kts | 228° |
| 2026-05-01 13:02 | 37.42294 | 4.23061 | 28280 ft | 353 kts | 228° |
| 2026-05-01 13:07 | 37.08912 | 3.78482 | 18852 ft | 322 kts | 228° |
| 2026-05-01 13:07 | 37.07397 | 3.76416 | 18352 ft | 321 kts | 228° |
| 2026-05-01 13:07 | 37.05906 | 3.74371 | 17891 ft | 319 kts | 228° |
| 2026-05-01 13:08 | 37.04399 | 3.72289 | 17379 ft | 319 kts | 228° |
| 2026-05-01 13:08 | 37.02938 | 3.70251 | 16874 ft | 318 kts | 228° |
| 2026-05-01 13:08 | 37.01474 | 3.68198 | 16434 ft | 316 kts | 228° |
| 2026-05-01 13:08 | 37.00008 | 3.66139 | 15941 ft | 314 kts | 228° |
| 2026-05-01 13:09 | 36.98558 | 3.64097 | 15503 ft | 313 kts | 228° |
| 2026-05-01 13:09 | 36.97143 | 3.62069 | 15069 ft | 312 kts | 231° |
| 2026-05-01 13:09 | 36.96067 | 3.59716 | 14574 ft | 311 kts | 248° |
| 2026-05-01 13:09 | 36.95324 | 3.57232 | 14059 ft | 306 kts | 250° |
| 2026-05-01 13:10 | 36.94621 | 3.54733 | 13408 ft | 307 kts | 250° |
| 2026-05-01 13:10 | 36.93919 | 3.52210 | 12812 ft | 304 kts | 250° |
| 2026-05-01 13:10 | 36.93221 | 3.49723 | 12168 ft | 301 kts | 250° |
| 2026-05-01 13:10 | 36.92526 | 3.47278 | 11573 ft | 298 kts | 251° |
| 2026-05-01 13:11 | 36.91914 | 3.44829 | 11049 ft | 294 kts | 255° |
| 2026-05-01 13:11 | 36.91398 | 3.42381 | 10638 ft | 287 kts | 256° |
| 2026-05-01 13:11 | 36.90910 | 3.40003 | 10407 ft | 282 kts | 256° |
| 2026-05-01 13:11 | 36.90420 | 3.37639 | 10114 ft | 279 kts | 256° |
| 2026-05-01 13:12 | 36.89942 | 3.35342 | 9882 ft | 264 kts | 256° |
| 2026-05-01 13:12 | 36.89485 | 3.33150 | 9597 ft | 261 kts | 256° |
| 2026-05-01 13:12 | 36.89025 | 3.30972 | 9272 ft | 260 kts | 256° |
| 2026-05-01 13:12 | 36.88558 | 3.28783 | 8990 ft | 259 kts | 256° |
| 2026-05-01 13:13 | 36.88093 | 3.26617 | 8674 ft | 258 kts | 256° |
| 2026-05-01 13:13 | 36.87628 | 3.24461 | 8351 ft | 256 kts | 256° |
| 2026-05-01 13:13 | 36.87160 | 3.22325 | 8034 ft | 255 kts | 256° |
| 2026-05-01 13:13 | 36.86691 | 3.20204 | 7750 ft | 255 kts | 256° |
| 2026-05-01 13:14 | 36.86214 | 3.18056 | 7456 ft | 255 kts | 256° |
| 2026-05-01 13:14 | 36.85737 | 3.15933 | 7134 ft | 254 kts | 256° |
| 2026-05-01 13:14 | 36.85258 | 3.13815 | 6852 ft | 252 kts | 256° |
| 2026-05-01 13:14 | 36.84770 | 3.11681 | 6549 ft | 255 kts | 256° |
| 2026-05-01 13:15 | 36.84282 | 3.09576 | 6264 ft | 253 kts | 256° |
| 2026-05-01 13:15 | 36.83787 | 3.07473 | 5990 ft | 250 kts | 256° |
| 2026-05-01 13:15 | 36.83300 | 3.05398 | 5742 ft | 248 kts | 256° |
| 2026-05-01 13:15 | 36.82822 | 3.03343 | 5510 ft | 247 kts | 256° |
| 2026-05-01 13:16 | 36.82349 | 3.01269 | 5264 ft | 246 kts | 257° |
| 2026-05-01 13:16 | 36.81930 | 2.99222 | 5029 ft | 244 kts | 258° |
| 2026-05-01 13:16 | 36.81520 | 2.97145 | 4829 ft | 244 kts | 258° |
| 2026-05-01 13:17 | 36.80348 | 2.91004 | 4185 ft | 241 kts | 258° |
| 2026-05-01 13:17 | 36.79968 | 2.88959 | 4008 ft | 240 kts | 258° |
| 2026-05-01 13:18 | 36.79214 | 2.84921 | 3659 ft | 236 kts | 258° |
| 2026-05-01 13:18 | 36.78838 | 2.82915 | 3637 ft | 238 kts | 258° |
| 2026-05-01 13:18 | 36.78462 | 2.80912 | 3617 ft | 237 kts | 258° |
| 2026-05-01 13:18 | 36.77916 | 2.79070 | 3635 ft | 218 kts | 236° |
| 2026-05-01 13:19 | 36.76720 | 2.78084 | 3606 ft | 198 kts | 189° |
| 2026-05-01 13:19 | 36.75473 | 2.78389 | 3588 ft | 176 kts | 150° |
| 2026-05-01 13:19 | 36.73999 | 2.80403 | 3577 ft | 155 kts | 112° |
| 2026-05-01 13:20 | 36.73512 | 2.81620 | 3574 ft | 156 kts | 114° |
| 2026-05-01 13:20 | 36.73024 | 2.82833 | 3573 ft | 155 kts | 114° |
| 2026-05-01 13:20 | 36.72543 | 2.84034 | 3572 ft | 155 kts | 114° |
| 2026-05-01 13:21 | 36.71583 | 2.86437 | 3577 ft | 155 kts | 114° |
| 2026-05-01 13:21 | 36.71102 | 2.87640 | 3571 ft | 155 kts | 113° |
| 2026-05-01 13:21 | 36.70615 | 2.88858 | 3573 ft | 155 kts | 114° |
| 2026-05-01 13:21 | 36.70133 | 2.90064 | 3576 ft | 155 kts | 114° |
| 2026-05-01 13:22 | 36.69755 | 2.91324 | 3558 ft | 152 kts | 91° |
| 2026-05-01 13:22 | 36.69776 | 2.92618 | 3563 ft | 152 kts | 88° |
| 2026-05-01 13:22 | 36.69740 | 2.93930 | 3524 ft | 154 kts | 90° |
| 2026-05-01 13:22 | 36.69765 | 2.95267 | 3445 ft | 150 kts | 83° |
| 2026-05-01 13:23 | 36.69788 | 2.96599 | 3273 ft | 153 kts | 92° |
| 2026-05-01 13:23 | 36.69706 | 2.97836 | 3072 ft | 144 kts | 92° |
| 2026-05-01 13:23 | 36.69633 | 2.99046 | 2918 ft | 134 kts | 91° |
| 2026-05-01 13:23 | 36.69592 | 3.00210 | 2678 ft | 133 kts | 90° |
| 2026-05-01 13:24 | 36.69562 | 3.01332 | 2538 ft | 130 kts | 89° |
| 2026-05-01 13:24 | 36.69536 | 3.02461 | 2341 ft | 133 kts | 89° |
| 2026-05-01 13:24 | 36.69511 | 3.03605 | 2175 ft | 132 kts | 89° |
| 2026-05-01 13:25 | 36.69459 | 3.05894 | 1815 ft | 133 kts | 88° |
| 2026-05-01 13:25 | 36.69434 | 3.07033 | 1638 ft | 133 kts | 89° |
| 2026-05-01 13:25 | 36.69408 | 3.08188 | 1460 ft | 133 kts | 88° |
| 2026-05-01 13:25 | 36.69382 | 3.09334 | 1282 ft | 133 kts | 88° |
| 2026-05-01 13:26 | 36.69355 | 3.10492 | 1105 ft | 133 kts | 88° |
| 2026-05-01 13:26 | 36.69329 | 3.11648 | 928 ft | 134 kts | 88° |
| 2026-05-01 13:26 | 36.69303 | 3.12817 | 749 ft | 134 kts | 88° |
| 2026-05-01 13:26 | 36.69276 | 3.13982 | 572 ft | 134 kts | 88° |
| 2026-05-01 13:27 | 36.69253 | 3.15134 | 394 ft | 134 kts | 87° |
| 2026-05-01 13:27 | 36.69231 | 3.16300 | 213 ft | 134 kts | 87° |
| 2026-05-01 13:27 | 36.69184 | 3.18376 | 63 ft | 73 kts | 91° |
| 2026-05-01 13:28 | 36.69164 | 3.19150 | 66 ft | 40 kts | 92° |
| 2026-05-01 13:28 | 36.69156 | 3.19505 | 66 ft | 40 kts | 91° |
| 2026-05-01 13:29 | 36.69241 | 3.19965 | 65 ft | 0 kts | 61° |
| 2026-05-01 13:30 | 36.69270 | 3.20031 | 66 ft | 14 kts | 64° |
| 2026-05-01 13:31 | 36.69324 | 3.20272 | 66 ft | 14 kts | 39° |
| 2026-05-01 13:31 | 36.69455 | 3.20003 | 64 ft | 17 kts | 272° |
| 2026-05-01 13:32 | 36.69519 | 3.19829 | 62 ft | 4 kts | 272° |
| 2026-05-01 13:33 | 36.69520 | 3.19805 | 62 ft | 0 kts | 272° |